createdAt,value
2022-08-01T00:00:19.876Z,98173.81
2022-08-01T00:05:27.489Z,98170.94
2022-08-01T00:10:32.763Z,98182.31
2022-08-01T00:15:41.414Z,98186.53
2022-08-01T00:21:01.894Z,98177.34
2022-08-01T00:26:06.765Z,98181.22
2022-08-01T00:31:11.913Z,98182.97
2022-08-01T00:36:19.424Z,98181.34
2022-08-01T00:41:24.269Z,98179.50
2022-08-01T00:46:29.174Z,98183.75
2022-08-01T00:51:37.295Z,98174.94
2022-08-01T00:56:42.199Z,98176.00
2022-08-01T01:01:50.055Z,98172.63
2022-08-01T01:07:08.405Z,98165.13
2022-08-01T01:12:26.712Z,98165.78
2022-08-01T01:17:49.736Z,98167.25
2022-08-01T01:23:14.210Z,98164.38
2022-08-01T01:28:27.787Z,98163.75
2022-08-01T01:33:37.328Z,98167.09
2022-08-01T01:38:54.870Z,98163.50
2022-08-01T01:44:01.397Z,98171.50
2022-08-01T01:49:11.380Z,98168.16
2022-08-01T01:54:16.362Z,98164.38
2022-08-01T01:59:25.768Z,98160.56
2022-08-01T02:04:35.058Z,98159.34
2022-08-01T02:09:41.661Z,98163.94
2022-08-01T02:14:48.374Z,98164.41
2022-08-01T02:19:57.450Z,98169.47
2022-08-01T02:25:07.176Z,98173.97
2022-08-01T02:30:16.042Z,98177.13
2022-08-01T02:36:30.584Z,98177.31
2022-08-01T02:41:25.893Z,98184.69
2022-08-01T02:46:37.658Z,98191.19
2022-08-01T02:51:44.224Z,98193.09
2022-08-01T02:56:54.350Z,98191.81
2022-08-01T03:02:01.007Z,98202.34
2022-08-01T03:07:11.433Z,98200.66
2022-08-01T03:12:21.853Z,98207.78
2022-08-01T03:17:29.503Z,98211.34
2022-08-01T03:22:36.840Z,98217.22
2022-08-01T03:27:47.196Z,98220.84
2022-08-01T03:32:52.122Z,98230.34
2022-08-01T03:38:15.753Z,98236.00
2022-08-01T03:43:30.608Z,98231.38
2022-08-01T03:48:39.670Z,98243.53
2022-08-01T03:53:46.261Z,98239.94
2022-08-01T03:58:55.021Z,98240.13
2022-08-01T04:04:02.595Z,98246.81
2022-08-01T04:09:13.187Z,98235.91
2022-08-01T04:14:21.216Z,98240.94
2022-08-01T04:19:27.102Z,98251.81
2022-08-01T04:24:34.453Z,98255.56
2022-08-01T04:29:42.988Z,98251.34
2022-08-01T04:34:50.430Z,98256.34
2022-08-01T04:39:56.759Z,98268.50
2022-08-01T04:45:05.635Z,98267.22
2022-08-01T04:50:12.494Z,98273.69
2022-08-01T04:55:18.316Z,98259.66
2022-08-01T05:00:26.059Z,98268.44
2022-08-01T05:05:31.650Z,98271.13
2022-08-01T05:10:36.487Z,98274.63
2022-08-01T05:15:43.934Z,98272.09
2022-08-01T05:20:48.773Z,98285.28
2022-08-01T05:25:56.733Z,98287.13
2022-08-01T05:31:06.352Z,98272.41
2022-08-01T05:36:11.262Z,98279.09
2022-08-01T05:41:17.489Z,98274.69
2022-08-01T05:46:27.448Z,98274.25
2022-08-01T05:51:33.148Z,98276.94
2022-08-01T05:56:40.071Z,98286.56
2022-08-01T06:01:47.938Z,98278.56
2022-08-01T06:06:55.894Z,98284.16
2022-08-01T06:12:01.089Z,98289.88
2022-08-01T06:17:08.692Z,98294.94
2022-08-01T06:22:13.577Z,98290.31
2022-08-01T06:27:39.697Z,98294.50
2022-08-01T06:32:56.997Z,98298.69
2022-08-01T06:38:02.149Z,98316.41
2022-08-01T06:43:07.112Z,98319.53
2022-08-01T06:48:14.524Z,98328.81
2022-08-01T06:53:19.726Z,98335.13
2022-08-01T06:58:31.637Z,98376.22
2022-08-01T07:03:52.441Z,98381.56
2022-08-01T07:09:05.762Z,98376.78
2022-08-01T07:14:13.408Z,98378.69
2022-08-01T07:19:21.938Z,98387.09
2022-08-01T07:24:32.793Z,98384.38
2022-08-01T07:29:40.938Z,98395.28
2022-08-01T07:34:48.363Z,98387.03
2022-08-01T07:39:53.217Z,98372.31
2022-08-01T07:44:58.017Z,98366.00
2022-08-01T07:50:13.770Z,98378.34
2022-08-01T07:55:20.746Z,98375.97
2022-08-01T08:00:25.679Z,98353.31
2022-08-01T08:05:58.443Z,98342.03
2022-08-01T08:10:59.021Z,98355.25
2022-08-01T08:16:03.894Z,98344.22
2022-08-01T08:21:11.760Z,98339.97
2022-08-01T08:26:16.672Z,98336.84
2022-08-01T08:31:25.393Z,98339.91
2022-08-01T08:36:49.718Z,98336.16
2022-08-01T08:41:54.902Z,98345.72
2022-08-01T08:47:06.339Z,98330.16
2022-08-01T08:52:18.361Z,98327.78
2022-08-01T08:57:24.609Z,98323.53
2022-08-01T09:02:29.450Z,98329.81
2022-08-01T09:07:37.157Z,98328.03
2022-08-01T09:12:42.806Z,98338.88
2022-08-01T09:17:48.035Z,98330.91
2022-08-01T09:22:55.414Z,98337.34
2022-08-01T09:28:07.824Z,98330.91
2022-08-01T09:33:21.592Z,98328.75
2022-08-01T09:38:30.505Z,98329.59
2022-08-01T09:43:35.695Z,98329.09
2022-08-01T09:48:43.365Z,98327.91
2022-08-01T09:53:56.881Z,98329.97
2022-08-01T09:59:03.249Z,98334.09
2022-08-01T10:04:13.678Z,98322.28
2022-08-01T10:09:40.237Z,98338.88
2022-08-01T10:14:46.962Z,98325.84
2022-08-01T10:19:58.430Z,98329.31
2022-08-01T10:25:09.228Z,98331.66
2022-08-01T10:30:23.018Z,98334.88
2022-08-01T10:35:46.655Z,98345.38
2022-08-01T10:40:56.409Z,98338.75
2022-08-01T10:46:02.335Z,98347.94
2022-08-01T10:51:18.182Z,98344.13
2022-08-01T10:56:27.617Z,98350.69
2022-08-01T11:01:37.775Z,98344.06
2022-08-01T11:06:56.380Z,98341.59
2022-08-01T11:12:13.257Z,98341.47
2022-08-01T11:17:38.020Z,98344.72
2022-08-01T11:23:20.306Z,98341.06
2022-08-01T11:28:35.606Z,98336.41
2022-08-01T11:33:55.072Z,98348.38
2022-08-01T11:39:16.212Z,98339.38
2022-08-01T11:44:34.613Z,98338.56
2022-08-01T11:49:56.163Z,98338.75
2022-08-01T11:55:10.157Z,98324.88
2022-08-01T12:00:21.316Z,98332.13
2022-08-01T12:05:26.817Z,98338.84
2022-08-01T12:10:49.671Z,98334.81
2022-08-01T12:15:59.850Z,98344.22
2022-08-01T12:21:07.727Z,98336.09
2022-08-01T12:26:28.487Z,98345.25
2022-08-01T12:31:39.842Z,98340.25
2022-08-01T12:36:45.659Z,98330.91
2022-08-01T12:41:50.674Z,98338.97
2022-08-01T12:46:58.337Z,98343.78
2022-08-01T12:52:04.491Z,98339.66
2022-08-01T12:57:25.328Z,98332.69
2022-08-01T13:02:39.182Z,98331.28
2022-08-01T13:07:50.163Z,98336.91
2022-08-01T13:12:56.918Z,98328.72
2022-08-01T13:18:25.358Z,98310.66
2022-08-01T13:24:02.120Z,98320.44
2022-08-01T13:29:09.259Z,98309.31
2022-08-01T13:34:17.251Z,98302.31
2022-08-01T13:39:35.358Z,98292.72
2022-08-01T13:44:40.251Z,98290.53
2022-08-01T13:49:47.823Z,98294.75
2022-08-01T13:54:52.743Z,98306.94
2022-08-01T14:00:01.341Z,98313.47
2022-08-01T14:05:10.131Z,98312.66
2022-08-01T14:10:19.378Z,98310.50
2022-08-01T14:15:36.810Z,98314.78
2022-08-01T14:20:46.927Z,98300.81
2022-08-01T14:26:05.267Z,98315.50
2022-08-01T14:31:11.942Z,98310.34
2022-08-01T14:36:29.324Z,98302.34
2022-08-01T14:41:35.955Z,98303.16
2022-08-01T14:46:57.946Z,98295.94
2022-08-01T14:52:08.004Z,98313.69
2022-08-01T14:57:13.799Z,98314.78
2022-08-01T15:02:19.690Z,98322.69
2022-08-01T15:07:28.193Z,98322.63
2022-08-01T15:12:49.906Z,98326.69
2022-08-01T15:17:55.593Z,98331.13
2022-08-01T15:23:08.669Z,98331.59
2022-08-01T15:28:14.450Z,98331.38
2022-08-01T15:33:19.454Z,98332.47
2022-08-01T15:38:27.412Z,98339.03
2022-08-01T15:43:32.585Z,98325.72
2022-08-01T15:48:40.106Z,98336.19
2022-08-01T15:53:49.940Z,98334.03
2022-08-01T15:58:55.703Z,98334.06
2022-08-01T16:04:01.559Z,98337.13
2022-08-01T16:09:10.045Z,98343.47
2022-08-01T16:14:24.694Z,98338.97
2022-08-01T16:19:29.916Z,98340.50
2022-08-01T16:24:37.632Z,98347.81
2022-08-01T16:29:42.533Z,98338.97
2022-08-01T16:34:47.648Z,98345.84
2022-08-01T16:39:56.318Z,98350.28
2022-08-01T16:45:03.999Z,98347.59
2022-08-01T16:50:17.765Z,98347.06
2022-08-01T16:55:49.445Z,98355.91
2022-08-01T17:00:56.324Z,98337.44
2022-08-01T17:06:02.239Z,98347.69
2022-08-01T17:11:09.701Z,98346.53
2022-08-01T17:16:14.798Z,98346.06
2022-08-01T17:21:19.642Z,98349.94
2022-08-01T17:26:27.034Z,98361.03
2022-08-01T17:31:31.960Z,98358.88
2022-08-01T17:36:36.773Z,98356.44
2022-08-01T17:41:44.720Z,98363.44
2022-08-01T17:46:49.648Z,98360.50
2022-08-01T17:51:54.806Z,98369.31
2022-08-01T17:57:03.280Z,98370.91
2022-08-01T18:02:13.314Z,98373.16
2022-08-01T18:07:18.287Z,98383.72
2022-08-01T18:12:25.884Z,98377.34
2022-08-01T18:17:31.391Z,98383.63
2022-08-01T18:22:36.218Z,98384.69
2022-08-01T18:28:16.719Z,98381.81
2022-08-01T18:33:08.977Z,98392.84
2022-08-01T18:38:13.864Z,98390.81
2022-08-01T18:43:21.684Z,98408.44
2022-08-01T18:48:26.926Z,98408.22
2022-08-01T18:53:39.553Z,98411.59
2022-08-01T18:58:49.736Z,98426.78
2022-08-01T19:03:54.673Z,98442.94
2022-08-01T19:09:02.578Z,98447.63
2022-08-01T19:14:17.165Z,98454.66
2022-08-01T19:19:27.848Z,98468.25
2022-08-01T19:24:33.986Z,98469.88
2022-08-01T19:29:43.427Z,98478.09
2022-08-01T19:34:58.960Z,98476.16
2022-08-01T19:40:05.327Z,98488.38
2022-08-01T19:45:14.311Z,98484.75
2022-08-01T19:50:19.871Z,98498.44
2022-08-01T19:55:39.612Z,98492.56
2022-08-01T20:00:49.976Z,98505.72
2022-08-01T20:05:54.881Z,98505.00
2022-08-01T20:11:10.265Z,98517.78
2022-08-01T20:16:33.854Z,98515.91
2022-08-01T20:21:39.642Z,98518.72
2022-08-01T20:26:44.884Z,98530.34
2022-08-01T20:31:57.431Z,98523.00
2022-08-01T20:37:02.345Z,98530.22
2022-08-01T20:42:12.978Z,98531.13
2022-08-01T20:47:21.839Z,98540.00
2022-08-01T20:52:30.026Z,98538.75
2022-08-01T20:57:35.661Z,98552.47
2022-08-01T21:02:52.042Z,98555.25
2022-08-01T21:08:05.937Z,98566.47
2022-08-01T21:13:20.536Z,98560.66
2022-08-01T21:18:36.347Z,98560.69
2022-08-01T21:23:50.884Z,98565.34
2022-08-01T21:28:58.295Z,98557.59
2022-08-01T21:34:09.865Z,98558.50
2022-08-01T21:39:15.414Z,98565.03
2022-08-01T21:44:21.849Z,98565.06
2022-08-01T21:49:36.419Z,98569.94
2022-08-01T21:54:50.282Z,98575.00
2022-08-01T22:00:06.568Z,98579.66
2022-08-01T22:05:17.154Z,98581.78
2022-08-01T22:10:23.474Z,98582.81
2022-08-01T22:15:44.289Z,98588.50
2022-08-01T22:20:54.313Z,98593.94
2022-08-01T22:25:59.944Z,98596.88
2022-08-01T22:31:06.889Z,98601.09
2022-08-01T22:36:16.379Z,98603.59
2022-08-01T22:41:23.699Z,98606.97
2022-08-01T22:46:36.482Z,98610.31
2022-08-01T22:51:55.757Z,98610.72
2022-08-01T22:57:07.644Z,98608.00
2022-08-01T23:02:17.381Z,98619.94
2022-08-01T23:07:31.607Z,98625.84
2022-08-01T23:12:36.908Z,98623.53
2022-08-01T23:17:45.417Z,98632.53
2022-08-01T23:22:54.253Z,98617.44
2022-08-01T23:28:05.889Z,98619.97
2022-08-01T23:33:11.939Z,98604.00
2022-08-01T23:38:22.923Z,98604.63
2022-08-01T23:43:28.404Z,98603.56
2022-08-01T23:48:33.592Z,98608.56
2022-08-01T23:53:41.155Z,98595.38
2022-08-01T23:58:48.791Z,98589.50
